sensor_id;sensor_type;location;lat;lon;timestamp;P1;durP1;ratioP1;P2;durP2;ratioP2
48795;SDS011;34607;48.520;-1.330;2022-12-18T08:27:18;51.05;;;26.77;;
48795;SDS011;34607;48.520;-1.330;2022-12-18T08:29:45;64.93;;;29.35;;
48795;SDS011;34607;48.520;-1.330;2022-12-18T08:32:13;61.05;;;30.02;;
48795;SDS011;34607;48.520;-1.330;2022-12-18T08:34:40;62.00;;;28.08;;
48795;SDS011;34607;48.520;-1.330;2022-12-18T08:37:07;56.42;;;27.92;;
48795;SDS011;34607;48.520;-1.330;2022-12-18T08:39:34;56.03;;;28.33;;
48795;SDS011;34607;48.520;-1.330;2022-12-18T08:42:01;64.43;;;28.73;;
48795;SDS011;34607;48.520;-1.330;2022-12-18T08:44:47;54.22;;;25.15;;
48795;SDS011;34607;48.520;-1.330;2022-12-18T08:47:14;62.50;;;26.73;;
48795;SDS011;34607;48.520;-1.330;2022-12-18T08:49:41;59.25;;;26.15;;
48795;SDS011;34607;48.520;-1.330;2022-12-18T08:52:08;62.42;;;28.63;;
48795;SDS011;34607;48.520;-1.330;2022-12-18T08:54:35;64.90;;;27.10;;
48795;SDS011;34607;48.520;-1.330;2022-12-18T08:57:02;51.85;;;25.85;;
48795;SDS011;34607;48.520;-1.330;2022-12-18T08:59:30;60.95;;;27.02;;
48795;SDS011;34607;48.520;-1.330;2022-12-18T09:01:58;56.88;;;25.80;;
48795;SDS011;34607;48.520;-1.330;2022-12-18T09:04:25;54.88;;;26.77;;
48795;SDS011;34607;48.520;-1.330;2022-12-18T09:06:55;53.22;;;26.33;;
48795;SDS011;34607;48.520;-1.330;2022-12-18T09:09:22;50.72;;;25.77;;
48795;SDS011;34607;48.520;-1.330;2022-12-18T09:11:49;46.55;;;24.98;;
48795;SDS011;34607;48.520;-1.330;2022-12-18T09:14:16;46.45;;;25.25;;
48795;SDS011;34607;48.520;-1.330;2022-12-18T09:16:43;47.38;;;24.02;;
48795;SDS011;34607;48.520;-1.330;2022-12-18T09:19:12;48.95;;;23.95;;
48795;SDS011;34607;48.520;-1.330;2022-12-18T09:21:39;45.72;;;24.27;;
48795;SDS011;34607;48.520;-1.330;2022-12-18T09:24:06;47.45;;;24.50;;
48795;SDS011;34607;48.520;-1.330;2022-12-18T09:26:38;44.47;;;23.88;;
48795;SDS011;34607;48.520;-1.330;2022-12-18T09:29:05;44.25;;;24.27;;
48795;SDS011;34607;48.520;-1.330;2022-12-18T09:31:34;40.47;;;23.48;;
48795;SDS011;34607;48.520;-1.330;2022-12-18T09:34:05;42.50;;;23.60;;
48795;SDS011;34607;48.520;-1.330;2022-12-18T09:36:34;38.28;;;24.35;;
48795;SDS011;34607;48.520;-1.330;2022-12-18T09:39:01;46.38;;;24.90;;
48795;SDS011;34607;48.520;-1.330;2022-12-18T09:41:39;46.15;;;24.00;;
48795;SDS011;34607;48.520;-1.330;2022-12-18T09:44:13;46.58;;;25.00;;
48795;SDS011;34607;48.520;-1.330;2022-12-18T09:46:46;41.03;;;24.35;;
48795;SDS011;34607;48.520;-1.330;2022-12-18T09:49:16;46.30;;;24.85;;
48795;SDS011;34607;48.520;-1.330;2022-12-18T09:51:49;42.75;;;24.70;;
48795;SDS011;34607;48.520;-1.330;2022-12-18T09:54:22;45.83;;;25.27;;
48795;SDS011;34607;48.520;-1.330;2022-12-18T09:56:52;45.40;;;24.63;;
48795;SDS011;34607;48.520;-1.330;2022-12-18T09:59:21;47.85;;;26.05;;
48795;SDS011;34607;48.520;-1.330;2022-12-18T10:01:50;52.65;;;24.67;;
48795;SDS011;34607;48.520;-1.330;2022-12-18T10:04:18;44.50;;;25.70;;
48795;SDS011;34607;48.520;-1.330;2022-12-18T10:06:46;42.90;;;23.48;;
48795;SDS011;34607;48.520;-1.330;2022-12-18T10:09:24;45.42;;;24.20;;
48795;SDS011;34607;48.520;-1.330;2022-12-18T10:12:00;43.83;;;24.45;;
48795;SDS011;34607;48.520;-1.330;2022-12-18T10:17:05;38.65;;;22.70;;
48795;SDS011;34607;48.520;-1.330;2022-12-18T10:19:39;43.83;;;22.85;;
48795;SDS011;34607;48.520;-1.330;2022-12-18T10:22:24;43.78;;;23.98;;
48795;SDS011;34607;48.520;-1.330;2022-12-18T10:25:02;38.47;;;23.67;;
48795;SDS011;34607;48.520;-1.330;2022-12-18T10:27:32;41.95;;;23.98;;
48795;SDS011;34607;48.520;-1.330;2022-12-18T10:29:59;41.53;;;22.90;;
48795;SDS011;34607;48.520;-1.330;2022-12-18T10:32:31;45.80;;;24.20;;
48795;SDS011;34607;48.520;-1.330;2022-12-18T10:34:58;42.15;;;22.45;;
48795;SDS011;34607;48.520;-1.330;2022-12-18T10:37:27;47.13;;;24.63;;
48795;SDS011;34607;48.520;-1.330;2022-12-18T10:40:06;45.97;;;25.02;;
48795;SDS011;34607;48.520;-1.330;2022-12-18T10:42:36;43.78;;;25.17;;
48795;SDS011;34607;48.520;-1.330;2022-12-18T10:45:08;42.10;;;24.60;;
48795;SDS011;34607;48.520;-1.330;2022-12-18T10:47:41;40.35;;;23.67;;
48795;SDS011;34607;48.520;-1.330;2022-12-18T10:50:17;43.70;;;22.45;;
48795;SDS011;34607;48.520;-1.330;2022-12-18T10:52:55;46.97;;;24.00;;
48795;SDS011;34607;48.520;-1.330;2022-12-18T10:55:23;46.67;;;24.67;;
48795;SDS011;34607;48.520;-1.330;2022-12-18T10:57:57;46.25;;;25.25;;
48795;SDS011;34607;48.520;-1.330;2022-12-18T11:00:42;45.28;;;24.95;;
48795;SDS011;34607;48.520;-1.330;2022-12-18T11:06:01;42.55;;;25.02;;
48795;SDS011;34607;48.520;-1.330;2022-12-18T11:08:32;47.15;;;25.35;;
48795;SDS011;34607;48.520;-1.330;2022-12-18T11:11:00;42.95;;;23.33;;
48795;SDS011;34607;48.520;-1.330;2022-12-18T11:13:28;40.47;;;22.33;;
48795;SDS011;34607;48.520;-1.330;2022-12-18T11:15:56;43.35;;;24.15;;
48795;SDS011;34607;48.520;-1.330;2022-12-18T11:18:26;42.58;;;24.65;;
48795;SDS011;34607;48.520;-1.330;2022-12-18T11:20:56;41.70;;;23.15;;
48795;SDS011;34607;48.520;-1.330;2022-12-18T11:23:25;42.95;;;24.85;;
48795;SDS011;34607;48.520;-1.330;2022-12-18T11:25:56;37.38;;;20.75;;
48795;SDS011;34607;48.520;-1.330;2022-12-18T11:28:26;42.05;;;21.75;;
48795;SDS011;34607;48.520;-1.330;2022-12-18T11:31:11;44.85;;;22.60;;
48795;SDS011;34607;48.520;-1.330;2022-12-18T11:33:44;35.83;;;19.92;;
48795;SDS011;34607;48.520;-1.330;2022-12-18T11:36:16;39.72;;;21.33;;
48795;SDS011;34607;48.520;-1.330;2022-12-18T11:38:45;32.13;;;18.95;;
48795;SDS011;34607;48.520;-1.330;2022-12-18T11:41:16;39.25;;;21.67;;
48795;SDS011;34607;48.520;-1.330;2022-12-18T11:43:49;32.45;;;19.05;;
48795;SDS011;34607;48.520;-1.330;2022-12-18T11:46:36;33.72;;;20.73;;
48795;SDS011;34607;48.520;-1.330;2022-12-18T11:49:10;30.30;;;19.00;;
48795;SDS011;34607;48.520;-1.330;2022-12-18T11:51:43;28.55;;;17.98;;
48795;SDS011;34607;48.520;-1.330;2022-12-18T11:54:16;31.20;;;18.73;;
48795;SDS011;34607;48.520;-1.330;2022-12-18T11:56:46;26.83;;;16.60;;
48795;SDS011;34607;48.520;-1.330;2022-12-18T11:59:17;27.10;;;17.65;;
48795;SDS011;34607;48.520;-1.330;2022-12-18T12:01:52;24.27;;;14.82;;
48795;SDS011;34607;48.520;-1.330;2022-12-18T12:04:34;26.23;;;17.05;;
48795;SDS011;34607;48.520;-1.330;2022-12-18T12:07:24;25.33;;;15.53;;
48795;SDS011;34607;48.520;-1.330;2022-12-18T12:10:08;26.63;;;17.45;;
48795;SDS011;34607;48.520;-1.330;2022-12-18T12:12:53;33.53;;;21.25;;
48795;SDS011;34607;48.520;-1.330;2022-12-18T12:15:37;24.27;;;16.65;;
48795;SDS011;34607;48.520;-1.330;2022-12-18T12:18:13;27.00;;;17.38;;
48795;SDS011;34607;48.520;-1.330;2022-12-18T12:20:50;24.38;;;16.45;;
48795;SDS011;34607;48.520;-1.330;2022-12-18T12:23:27;28.90;;;17.17;;
48795;SDS011;34607;48.520;-1.330;2022-12-18T12:26:01;27.38;;;18.60;;
48795;SDS011;34607;48.520;-1.330;2022-12-18T12:28:42;28.90;;;19.00;;
48795;SDS011;34607;48.520;-1.330;2022-12-18T12:31:23;24.58;;;16.25;;
48795;SDS011;34607;48.520;-1.330;2022-12-18T12:33:59;25.33;;;17.35;;
48795;SDS011;34607;48.520;-1.330;2022-12-18T12:36:38;28.48;;;17.85;;
48795;SDS011;34607;48.520;-1.330;2022-12-18T12:39:11;24.83;;;16.70;;
48795;SDS011;34607;48.520;-1.330;2022-12-18T12:41:44;23.00;;;16.23;;
48795;SDS011;34607;48.520;-1.330;2022-12-18T12:44:32;23.95;;;16.10;;
48795;SDS011;34607;48.520;-1.330;2022-12-18T12:47:17;24.02;;;16.80;;
48795;SDS011;34607;48.520;-1.330;2022-12-18T12:49:48;21.80;;;14.73;;
48795;SDS011;34607;48.520;-1.330;2022-12-18T12:52:17;24.80;;;16.63;;
48795;SDS011;34607;48.520;-1.330;2022-12-18T12:54:52;22.83;;;16.52;;
48795;SDS011;34607;48.520;-1.330;2022-12-18T12:57:25;25.05;;;18.50;;
48795;SDS011;34607;48.520;-1.330;2022-12-18T13:00:04;25.92;;;17.60;;
48795;SDS011;34607;48.520;-1.330;2022-12-18T13:02:36;26.02;;;17.30;;
48795;SDS011;34607;48.520;-1.330;2022-12-18T13:05:14;28.33;;;18.63;;
48795;SDS011;34607;48.520;-1.330;2022-12-18T13:07:46;27.20;;;18.25;;
48795;SDS011;34607;48.520;-1.330;2022-12-18T13:10:24;28.08;;;20.20;;
48795;SDS011;34607;48.520;-1.330;2022-12-18T13:12:56;26.63;;;16.50;;
48795;SDS011;34607;48.520;-1.330;2022-12-18T13:15:27;25.45;;;18.80;;
48795;SDS011;34607;48.520;-1.330;2022-12-18T13:21:02;31.23;;;19.25;;
48795;SDS011;34607;48.520;-1.330;2022-12-18T13:23:39;23.88;;;17.55;;
48795;SDS011;34607;48.520;-1.330;2022-12-18T13:28:57;27.83;;;18.17;;
48795;SDS011;34607;48.520;-1.330;2022-12-18T13:34:35;26.52;;;18.60;;
48795;SDS011;34607;48.520;-1.330;2022-12-18T13:43:15;30.77;;;20.60;;
48795;SDS011;34607;48.520;-1.330;2022-12-18T13:45:58;35.45;;;20.63;;
48795;SDS011;34607;48.520;-1.330;2022-12-18T13:48:28;29.55;;;20.05;;
48795;SDS011;34607;48.520;-1.330;2022-12-18T13:51:00;26.25;;;18.58;;
48795;SDS011;34607;48.520;-1.330;2022-12-18T13:53:31;25.02;;;18.10;;
48795;SDS011;34607;48.520;-1.330;2022-12-18T13:56:02;30.13;;;18.92;;
48795;SDS011;34607;48.520;-1.330;2022-12-18T13:58:30;30.25;;;19.85;;
48795;SDS011;34607;48.520;-1.330;2022-12-18T14:00:58;32.35;;;20.98;;
48795;SDS011;34607;48.520;-1.330;2022-12-18T14:03:28;31.13;;;19.27;;
48795;SDS011;34607;48.520;-1.330;2022-12-18T14:05:56;30.33;;;20.77;;
48795;SDS011;34607;48.520;-1.330;2022-12-18T14:08:32;31.23;;;19.75;;
48795;SDS011;34607;48.520;-1.330;2022-12-18T14:11:02;30.95;;;19.80;;
48795;SDS011;34607;48.520;-1.330;2022-12-18T14:13:32;29.50;;;19.98;;
48795;SDS011;34607;48.520;-1.330;2022-12-18T14:16:03;29.08;;;18.88;;
48795;SDS011;34607;48.520;-1.330;2022-12-18T14:18:33;27.95;;;19.88;;
48795;SDS011;34607;48.520;-1.330;2022-12-18T14:21:15;31.05;;;20.08;;
48795;SDS011;34607;48.520;-1.330;2022-12-18T14:23:45;31.90;;;19.25;;
48795;SDS011;34607;48.520;-1.330;2022-12-18T14:26:25;29.42;;;20.70;;
48795;SDS011;34607;48.520;-1.330;2022-12-18T14:28:53;31.38;;;20.30;;
48795;SDS011;34607;48.520;-1.330;2022-12-18T14:31:21;26.80;;;19.48;;
48795;SDS011;34607;48.520;-1.330;2022-12-18T14:33:50;31.88;;;20.63;;
48795;SDS011;34607;48.520;-1.330;2022-12-18T14:36:20;28.92;;;20.15;;
48795;SDS011;34607;48.520;-1.330;2022-12-18T14:38:49;30.27;;;18.95;;
48795;SDS011;34607;48.520;-1.330;2022-12-18T14:41:19;31.25;;;20.52;;
48795;SDS011;34607;48.520;-1.330;2022-12-18T14:43:48;30.27;;;20.38;;
48795;SDS011;34607;48.520;-1.330;2022-12-18T14:46:26;30.73;;;21.15;;
48795;SDS011;34607;48.520;-1.330;2022-12-18T14:48:56;32.17;;;21.13;;
48795;SDS011;34607;48.520;-1.330;2022-12-18T14:51:28;30.75;;;21.63;;
48795;SDS011;34607;48.520;-1.330;2022-12-18T14:53:58;28.02;;;19.30;;
48795;SDS011;34607;48.520;-1.330;2022-12-18T14:56:27;32.50;;;20.60;;
48795;SDS011;34607;48.520;-1.330;2022-12-18T14:58:56;32.10;;;21.25;;
48795;SDS011;34607;48.520;-1.330;2022-12-18T15:01:26;32.85;;;22.77;;
48795;SDS011;34607;48.520;-1.330;2022-12-18T15:03:56;33.22;;;22.75;;
48795;SDS011;34607;48.520;-1.330;2022-12-18T15:06:30;34.22;;;23.10;;
48795;SDS011;34607;48.520;-1.330;2022-12-18T15:11:28;34.78;;;22.58;;
48795;SDS011;34607;48.520;-1.330;2022-12-18T15:16:52;31.30;;;20.52;;
48795;SDS011;34607;48.520;-1.330;2022-12-18T15:19:21;27.27;;;19.92;;
48795;SDS011;34607;48.520;-1.330;2022-12-18T15:21:53;26.98;;;19.13;;
48795;SDS011;34607;48.520;-1.330;2022-12-18T15:24:24;32.40;;;19.15;;
48795;SDS011;34607;48.520;-1.330;2022-12-18T15:26:56;27.75;;;18.20;;
48795;SDS011;34607;48.520;-1.330;2022-12-18T15:29:23;27.52;;;18.92;;
48795;SDS011;34607;48.520;-1.330;2022-12-18T15:31:58;22.45;;;16.33;;
48795;SDS011;34607;48.520;-1.330;2022-12-18T15:34:27;20.50;;;16.10;;
48795;SDS011;34607;48.520;-1.330;2022-12-18T15:36:56;21.85;;;16.63;;
48795;SDS011;34607;48.520;-1.330;2022-12-18T15:39:23;19.80;;;14.68;;
48795;SDS011;34607;48.520;-1.330;2022-12-18T15:41:50;24.00;;;14.90;;
48795;SDS011;34607;48.520;-1.330;2022-12-18T15:44:34;18.90;;;14.93;;
48795;SDS011;34607;48.520;-1.330;2022-12-18T15:47:01;21.48;;;15.10;;
48795;SDS011;34607;48.520;-1.330;2022-12-18T15:49:28;19.40;;;13.52;;
48795;SDS011;34607;48.520;-1.330;2022-12-18T15:51:58;17.70;;;14.30;;
48795;SDS011;34607;48.520;-1.330;2022-12-18T15:54:26;19.77;;;13.98;;
48795;SDS011;34607;48.520;-1.330;2022-12-18T15:57:10;21.45;;;14.98;;
48795;SDS011;34607;48.520;-1.330;2022-12-18T15:59:50;20.65;;;15.00;;
48795;SDS011;34607;48.520;-1.330;2022-12-18T16:02:18;19.27;;;13.93;;
48795;SDS011;34607;48.520;-1.330;2022-12-18T16:04:47;22.92;;;15.15;;
48795;SDS011;34607;48.520;-1.330;2022-12-18T16:07:16;21.33;;;14.02;;
48795;SDS011;34607;48.520;-1.330;2022-12-18T16:09:44;19.92;;;15.20;;
48795;SDS011;34607;48.520;-1.330;2022-12-18T16:12:15;19.23;;;13.90;;
48795;SDS011;34607;48.520;-1.330;2022-12-18T16:14:44;18.52;;;13.52;;
48795;SDS011;34607;48.520;-1.330;2022-12-18T16:17:12;19.90;;;14.07;;
48795;SDS011;34607;48.520;-1.330;2022-12-18T16:19:40;21.50;;;12.88;;
48795;SDS011;34607;48.520;-1.330;2022-12-18T16:22:08;19.92;;;14.05;;
48795;SDS011;34607;48.520;-1.330;2022-12-18T16:24:45;17.65;;;13.23;;
48795;SDS011;34607;48.520;-1.330;2022-12-18T16:27:13;21.05;;;13.35;;
48795;SDS011;34607;48.520;-1.330;2022-12-18T16:29:40;20.08;;;12.10;;
48795;SDS011;34607;48.520;-1.330;2022-12-18T16:32:08;20.00;;;13.98;;
48795;SDS011;34607;48.520;-1.330;2022-12-18T16:34:38;18.40;;;14.25;;
48795;SDS011;34607;48.520;-1.330;2022-12-18T16:37:06;19.83;;;14.20;;
48795;SDS011;34607;48.520;-1.330;2022-12-18T16:39:36;16.83;;;12.57;;
48795;SDS011;34607;48.520;-1.330;2022-12-18T16:42:05;17.05;;;13.63;;
48795;SDS011;34607;48.520;-1.330;2022-12-18T16:44:35;19.90;;;15.35;;
48795;SDS011;34607;48.520;-1.330;2022-12-18T16:47:02;19.98;;;14.88;;
48795;SDS011;34607;48.520;-1.330;2022-12-18T16:49:29;19.50;;;14.50;;
48795;SDS011;34607;48.520;-1.330;2022-12-18T16:51:57;20.55;;;14.98;;
48795;SDS011;34607;48.520;-1.330;2022-12-18T16:54:27;20.30;;;13.43;;
48795;SDS011;34607;48.520;-1.330;2022-12-18T16:56:56;20.15;;;14.15;;
48795;SDS011;34607;48.520;-1.330;2022-12-18T16:59:25;19.15;;;14.93;;
48795;SDS011;34607;48.520;-1.330;2022-12-18T17:01:53;20.17;;;13.77;;
48795;SDS011;34607;48.520;-1.330;2022-12-18T17:04:21;18.35;;;13.05;;
48795;SDS011;34607;48.520;-1.330;2022-12-18T17:06:49;18.77;;;13.90;;
48795;SDS011;34607;48.520;-1.330;2022-12-18T17:09:18;21.02;;;15.00;;
48795;SDS011;34607;48.520;-1.330;2022-12-18T17:11:48;19.98;;;13.35;;
48795;SDS011;34607;48.520;-1.330;2022-12-18T17:14:17;22.83;;;13.63;;
48795;SDS011;34607;48.520;-1.330;2022-12-18T17:16:45;18.20;;;12.50;;
48795;SDS011;34607;48.520;-1.330;2022-12-18T17:19:12;18.70;;;13.93;;
48795;SDS011;34607;48.520;-1.330;2022-12-18T17:21:41;16.85;;;12.55;;
48795;SDS011;34607;48.520;-1.330;2022-12-18T17:24:08;20.05;;;14.13;;
48795;SDS011;34607;48.520;-1.330;2022-12-18T17:26:35;18.27;;;12.50;;
48795;SDS011;34607;48.520;-1.330;2022-12-18T17:29:03;17.10;;;13.65;;
48795;SDS011;34607;48.520;-1.330;2022-12-18T17:31:31;18.30;;;13.32;;
48795;SDS011;34607;48.520;-1.330;2022-12-18T17:34:00;16.95;;;13.15;;
48795;SDS011;34607;48.520;-1.330;2022-12-18T17:36:28;22.95;;;13.23;;
48795;SDS011;34607;48.520;-1.330;2022-12-18T17:38:58;20.35;;;13.85;;
48795;SDS011;34607;48.520;-1.330;2022-12-18T17:41:26;17.80;;;12.27;;
48795;SDS011;34607;48.520;-1.330;2022-12-18T17:43:55;16.15;;;12.05;;
48795;SDS011;34607;48.520;-1.330;2022-12-18T17:46:24;19.73;;;13.27;;
48795;SDS011;34607;48.520;-1.330;2022-12-18T17:48:55;18.33;;;12.98;;
48795;SDS011;34607;48.520;-1.330;2022-12-18T17:51:22;20.65;;;13.73;;
48795;SDS011;34607;48.520;-1.330;2022-12-18T17:53:50;24.08;;;16.73;;
48795;SDS011;34607;48.520;-1.330;2022-12-18T17:56:18;22.02;;;15.43;;
48795;SDS011;34607;48.520;-1.330;2022-12-18T17:58:47;20.88;;;15.35;;
48795;SDS011;34607;48.520;-1.330;2022-12-18T18:01:15;18.58;;;11.85;;
48795;SDS011;34607;48.520;-1.330;2022-12-18T18:03:43;18.17;;;12.55;;
48795;SDS011;34607;48.520;-1.330;2022-12-18T18:06:12;15.77;;;11.75;;
48795;SDS011;34607;48.520;-1.330;2022-12-18T18:08:40;16.38;;;10.80;;
48795;SDS011;34607;48.520;-1.330;2022-12-18T18:11:09;16.95;;;13.10;;
48795;SDS011;34607;48.520;-1.330;2022-12-18T18:13:55;18.88;;;12.10;;
48795;SDS011;34607;48.520;-1.330;2022-12-18T18:16:30;16.95;;;12.35;;
48795;SDS011;34607;48.520;-1.330;2022-12-18T18:19:00;16.38;;;11.52;;
48795;SDS011;34607;48.520;-1.330;2022-12-18T18:21:31;14.40;;;11.68;;
48795;SDS011;34607;48.520;-1.330;2022-12-18T18:24:00;15.43;;;11.50;;
48795;SDS011;34607;48.520;-1.330;2022-12-18T18:26:27;16.70;;;11.63;;
48795;SDS011;34607;48.520;-1.330;2022-12-18T18:28:57;13.30;;;11.05;;
48795;SDS011;34607;48.520;-1.330;2022-12-18T18:31:25;16.08;;;11.00;;
48795;SDS011;34607;48.520;-1.330;2022-12-18T18:33:53;15.13;;;10.32;;
48795;SDS011;34607;48.520;-1.330;2022-12-18T18:36:21;15.13;;;10.68;;
48795;SDS011;34607;48.520;-1.330;2022-12-18T18:38:50;12.50;;;9.93;;
48795;SDS011;34607;48.520;-1.330;2022-12-18T18:41:18;17.63;;;11.27;;
48795;SDS011;34607;48.520;-1.330;2022-12-18T18:43:46;13.88;;;11.23;;
48795;SDS011;34607;48.520;-1.330;2022-12-18T18:46:14;16.55;;;11.23;;
48795;SDS011;34607;48.520;-1.330;2022-12-18T18:48:41;16.02;;;10.85;;
48795;SDS011;34607;48.520;-1.330;2022-12-18T18:51:09;14.02;;;11.02;;
48795;SDS011;34607;48.520;-1.330;2022-12-18T18:53:39;15.93;;;11.38;;
48795;SDS011;34607;48.520;-1.330;2022-12-18T18:56:10;13.45;;;10.40;;
48795;SDS011;34607;48.520;-1.330;2022-12-18T18:58:38;12.52;;;9.35;;
48795;SDS011;34607;48.520;-1.330;2022-12-18T19:01:06;14.18;;;10.23;;
48795;SDS011;34607;48.520;-1.330;2022-12-18T19:03:35;12.65;;;10.35;;
48795;SDS011;34607;48.520;-1.330;2022-12-18T19:06:04;13.93;;;10.43;;
48795;SDS011;34607;48.520;-1.330;2022-12-18T19:08:33;15.02;;;11.82;;
48795;SDS011;34607;48.520;-1.330;2022-12-18T19:11:03;12.32;;;9.65;;
48795;SDS011;34607;48.520;-1.330;2022-12-18T19:13:53;13.65;;;10.70;;
48795;SDS011;34607;48.520;-1.330;2022-12-18T19:16:19;18.25;;;10.73;;
48795;SDS011;34607;48.520;-1.330;2022-12-18T19:18:47;18.48;;;10.02;;
48795;SDS011;34607;48.520;-1.330;2022-12-18T19:21:14;13.73;;;9.85;;
48795;SDS011;34607;48.520;-1.330;2022-12-18T19:23:41;14.52;;;11.27;;
48795;SDS011;34607;48.520;-1.330;2022-12-18T19:26:09;15.00;;;10.77;;
48795;SDS011;34607;48.520;-1.330;2022-12-18T19:28:37;14.57;;;10.50;;
48795;SDS011;34607;48.520;-1.330;2022-12-18T19:31:06;16.52;;;11.45;;
48795;SDS011;34607;48.520;-1.330;2022-12-18T19:33:36;14.48;;;9.88;;
48795;SDS011;34607;48.520;-1.330;2022-12-18T19:36:08;13.18;;;10.15;;
48795;SDS011;34607;48.520;-1.330;2022-12-18T19:38:37;14.45;;;9.30;;
48795;SDS011;34607;48.520;-1.330;2022-12-18T19:41:04;15.73;;;11.07;;
48795;SDS011;34607;48.520;-1.330;2022-12-18T19:43:32;16.48;;;10.82;;
48795;SDS011;34607;48.520;-1.330;2022-12-18T19:46:00;13.18;;;10.40;;
48795;SDS011;34607;48.520;-1.330;2022-12-18T19:48:30;14.20;;;9.95;;
48795;SDS011;34607;48.520;-1.330;2022-12-18T19:51:02;14.95;;;11.02;;
48795;SDS011;34607;48.520;-1.330;2022-12-18T19:53:30;14.27;;;10.13;;
48795;SDS011;34607;48.520;-1.330;2022-12-18T19:55:57;15.52;;;10.98;;
48795;SDS011;34607;48.520;-1.330;2022-12-18T19:58:24;18.00;;;10.88;;
48795;SDS011;34607;48.520;-1.330;2022-12-18T20:00:51;15.45;;;10.05;;
48795;SDS011;34607;48.520;-1.330;2022-12-18T20:03:18;13.98;;;9.80;;
48795;SDS011;34607;48.520;-1.330;2022-12-18T20:05:47;14.98;;;10.38;;
48795;SDS011;34607;48.520;-1.330;2022-12-18T20:08:14;15.93;;;10.80;;
48795;SDS011;34607;48.520;-1.330;2022-12-18T20:10:41;15.85;;;10.75;;
48795;SDS011;34607;48.520;-1.330;2022-12-18T20:13:13;14.00;;;10.27;;
48795;SDS011;34607;48.520;-1.330;2022-12-18T20:15:40;13.73;;;9.50;;
48795;SDS011;34607;48.520;-1.330;2022-12-18T20:18:07;17.70;;;10.65;;
48795;SDS011;34607;48.520;-1.330;2022-12-18T20:20:35;14.98;;;9.43;;
48795;SDS011;34607;48.520;-1.330;2022-12-18T20:23:04;12.43;;;8.95;;
48795;SDS011;34607;48.520;-1.330;2022-12-18T20:25:31;14.02;;;8.90;;
48795;SDS011;34607;48.520;-1.330;2022-12-18T20:27:58;13.60;;;9.18;;
48795;SDS011;34607;48.520;-1.330;2022-12-18T20:30:25;15.57;;;8.82;;
48795;SDS011;34607;48.520;-1.330;2022-12-18T20:32:52;12.77;;;9.40;;
48795;SDS011;34607;48.520;-1.330;2022-12-18T20:35:19;19.27;;;9.73;;
48795;SDS011;34607;48.520;-1.330;2022-12-18T20:37:46;16.63;;;8.80;;
48795;SDS011;34607;48.520;-1.330;2022-12-18T20:40:15;10.48;;;7.90;;
48795;SDS011;34607;48.520;-1.330;2022-12-18T20:42:42;13.95;;;10.27;;
48795;SDS011;34607;48.520;-1.330;2022-12-18T20:45:09;12.55;;;7.80;;
48795;SDS011;34607;48.520;-1.330;2022-12-18T20:47:36;10.95;;;8.23;;
48795;SDS011;34607;48.520;-1.330;2022-12-18T20:50:04;15.48;;;7.97;;
48795;SDS011;34607;48.520;-1.330;2022-12-18T20:52:32;10.02;;;8.75;;
48795;SDS011;34607;48.520;-1.330;2022-12-18T20:54:59;13.68;;;7.95;;
48795;SDS011;34607;48.520;-1.330;2022-12-18T20:57:30;11.10;;;8.38;;
48795;SDS011;34607;48.520;-1.330;2022-12-18T20:59:57;10.48;;;8.38;;
48795;SDS011;34607;48.520;-1.330;2022-12-18T21:02:25;11.73;;;8.88;;
48795;SDS011;34607;48.520;-1.330;2022-12-18T21:04:52;13.15;;;8.25;;
48795;SDS011;34607;48.520;-1.330;2022-12-18T21:07:19;12.98;;;8.55;;
48795;SDS011;34607;48.520;-1.330;2022-12-18T21:09:46;10.93;;;7.65;;
48795;SDS011;34607;48.520;-1.330;2022-12-18T21:12:13;11.40;;;8.25;;
48795;SDS011;34607;48.520;-1.330;2022-12-18T21:14:59;11.27;;;8.32;;
48795;SDS011;34607;48.520;-1.330;2022-12-18T21:17:27;19.08;;;8.85;;
48795;SDS011;34607;48.520;-1.330;2022-12-18T21:19:54;10.45;;;7.93;;
48795;SDS011;34607;48.520;-1.330;2022-12-18T21:22:21;11.50;;;8.35;;
48795;SDS011;34607;48.520;-1.330;2022-12-18T21:24:49;9.80;;;7.50;;
48795;SDS011;34607;48.520;-1.330;2022-12-18T21:27:16;11.43;;;7.80;;
48795;SDS011;34607;48.520;-1.330;2022-12-18T21:29:43;12.32;;;8.10;;
48795;SDS011;34607;48.520;-1.330;2022-12-18T21:32:12;12.38;;;8.32;;
48795;SDS011;34607;48.520;-1.330;2022-12-18T21:34:39;11.93;;;7.72;;
48795;SDS011;34607;48.520;-1.330;2022-12-18T21:37:07;12.38;;;8.00;;
48795;SDS011;34607;48.520;-1.330;2022-12-18T21:39:34;13.27;;;7.38;;
48795;SDS011;34607;48.520;-1.330;2022-12-18T21:42:01;14.93;;;7.85;;
48795;SDS011;34607;48.520;-1.330;2022-12-18T21:44:46;10.27;;;8.23;;
48795;SDS011;34607;48.520;-1.330;2022-12-18T21:47:16;9.52;;;7.75;;
48795;SDS011;34607;48.520;-1.330;2022-12-18T21:49:43;13.18;;;7.43;;
48795;SDS011;34607;48.520;-1.330;2022-12-18T21:52:10;12.07;;;7.13;;
48795;SDS011;34607;48.520;-1.330;2022-12-18T21:54:37;10.60;;;7.10;;
48795;SDS011;34607;48.520;-1.330;2022-12-18T21:57:05;12.23;;;6.80;;
48795;SDS011;34607;48.520;-1.330;2022-12-18T21:59:34;8.77;;;6.43;;
48795;SDS011;34607;48.520;-1.330;2022-12-18T22:02:05;13.73;;;6.88;;
48795;SDS011;34607;48.520;-1.330;2022-12-18T22:04:35;9.82;;;6.95;;
48795;SDS011;34607;48.520;-1.330;2022-12-18T22:07:02;10.43;;;5.93;;
48795;SDS011;34607;48.520;-1.330;2022-12-18T22:09:30;10.98;;;6.78;;
48795;SDS011;34607;48.520;-1.330;2022-12-18T22:11:58;9.52;;;6.28;;
48795;SDS011;34607;48.520;-1.330;2022-12-18T22:14:25;10.30;;;6.45;;
48795;SDS011;34607;48.520;-1.330;2022-12-18T22:16:52;10.35;;;6.40;;
48795;SDS011;34607;48.520;-1.330;2022-12-18T22:19:21;10.75;;;6.35;;
48795;SDS011;34607;48.520;-1.330;2022-12-18T22:21:51;9.68;;;5.78;;
48795;SDS011;34607;48.520;-1.330;2022-12-18T22:24:20;9.52;;;5.85;;
48795;SDS011;34607;48.520;-1.330;2022-12-18T22:26:48;12.88;;;6.53;;
48795;SDS011;34607;48.520;-1.330;2022-12-18T22:29:17;11.65;;;6.72;;
48795;SDS011;34607;48.520;-1.330;2022-12-18T22:32:04;7.97;;;5.95;;
48795;SDS011;34607;48.520;-1.330;2022-12-18T22:34:32;8.82;;;6.22;;
